sensor_id;sensor_type;location;lat;lon;timestamp;pressure;altitude;pressure_sealevel;temperature;humidity
82807;BME280;72563;44.816;20.484;2023-10-08T00:00:47;100847.56;;;22.07;36.17
82807;BME280;72563;44.816;20.484;2023-10-08T00:03:19;100850.53;;;22.21;36.25
82807;BME280;72563;44.816;20.484;2023-10-08T00:05:46;100855.66;;;22.12;36.67
82807;BME280;72563;44.816;20.484;2023-10-08T00:08:12;100857.47;;;21.94;36.35
82807;BME280;72563;44.816;20.484;2023-10-08T00:10:40;100849.06;;;21.94;35.45
82807;BME280;72563;44.816;20.484;2023-10-08T00:13:15;100847.91;;;21.99;36.49
82807;BME280;72563;44.816;20.484;2023-10-08T00:15:42;100834.03;;;21.80;36.15
82807;BME280;72563;44.816;20.484;2023-10-08T00:18:22;100826.75;;;21.75;36.69
82807;BME280;72563;44.816;20.484;2023-10-08T00:20:49;100824.97;;;21.90;37.25
82807;BME280;72563;44.816;20.484;2023-10-08T00:23:24;100825.53;;;22.06;36.46
82807;BME280;72563;44.816;20.484;2023-10-08T00:25:53;100821.13;;;22.05;36.05
82807;BME280;72563;44.816;20.484;2023-10-08T00:28:20;100825.22;;;22.11;35.91
82807;BME280;72563;44.816;20.484;2023-10-08T00:30:46;100818.78;;;22.10;35.95
82807;BME280;72563;44.816;20.484;2023-10-08T00:33:13;100822.03;;;22.16;36.48
82807;BME280;72563;44.816;20.484;2023-10-08T00:35:40;100819.66;;;22.18;36.69
82807;BME280;72563;44.816;20.484;2023-10-08T00:38:09;100818.09;;;22.20;35.99
82807;BME280;72563;44.816;20.484;2023-10-08T00:40:43;100820.91;;;22.24;35.65
82807;BME280;72563;44.816;20.484;2023-10-08T00:43:34;100817.72;;;22.25;36.45
82807;BME280;72563;44.816;20.484;2023-10-08T00:46:02;100817.69;;;22.22;36.59
82807;BME280;72563;44.816;20.484;2023-10-08T00:48:29;100809.41;;;22.33;36.49
82807;BME280;72563;44.816;20.484;2023-10-08T00:51:02;100802.09;;;22.24;36.56
82807;BME280;72563;44.816;20.484;2023-10-08T00:53:47;100798.09;;;22.25;36.10
82807;BME280;72563;44.816;20.484;2023-10-08T00:56:15;100800.97;;;22.33;35.91
82807;BME280;72563;44.816;20.484;2023-10-08T00:58:44;100795.41;;;22.36;36.15
82807;BME280;72563;44.816;20.484;2023-10-08T01:01:16;100791.84;;;22.39;36.00
82807;BME280;72563;44.816;20.484;2023-10-08T01:03:45;100786.56;;;22.34;36.06
82807;BME280;72563;44.816;20.484;2023-10-08T01:06:11;100789.72;;;22.29;36.26
82807;BME280;72563;44.816;20.484;2023-10-08T01:08:37;100772.50;;;22.31;36.02
82807;BME280;72563;44.816;20.484;2023-10-08T01:11:23;100779.72;;;22.32;36.16
82807;BME280;72563;44.816;20.484;2023-10-08T01:14:08;100778.09;;;22.27;36.12
82807;BME280;72563;44.816;20.484;2023-10-08T01:16:33;100785.69;;;22.26;36.46
82807;BME280;72563;44.816;20.484;2023-10-08T01:19:00;100786.84;;;22.22;36.05
82807;BME280;72563;44.816;20.484;2023-10-08T01:21:28;100783.19;;;22.18;36.30
82807;BME280;72563;44.816;20.484;2023-10-08T01:24:02;100786.03;;;22.21;36.09
82807;BME280;72563;44.816;20.484;2023-10-08T01:26:31;100782.88;;;22.23;35.83
82807;BME280;72563;44.816;20.484;2023-10-08T01:28:58;100783.50;;;22.09;35.42
82807;BME280;72563;44.816;20.484;2023-10-08T01:31:28;100776.63;;;22.03;35.81
82807;BME280;72563;44.816;20.484;2023-10-08T01:33:54;100785.28;;;21.88;35.97
82807;BME280;72563;44.816;20.484;2023-10-08T01:36:23;100784.72;;;21.75;34.94
82807;BME280;72563;44.816;20.484;2023-10-08T01:38:49;100788.06;;;21.84;36.06
82807;BME280;72563;44.816;20.484;2023-10-08T01:41:14;100790.25;;;21.68;35.27
82807;BME280;72563;44.816;20.484;2023-10-08T01:43:55;100779.94;;;21.79;36.14
82807;BME280;72563;44.816;20.484;2023-10-08T01:46:21;100790.09;;;21.87;36.46
82807;BME280;72563;44.816;20.484;2023-10-08T01:48:47;100776.16;;;21.94;35.34
82807;BME280;72563;44.816;20.484;2023-10-08T01:51:14;100773.31;;;21.91;34.89
82807;BME280;72563;44.816;20.484;2023-10-08T01:53:53;100773.34;;;21.94;35.76
82807;BME280;72563;44.816;20.484;2023-10-08T01:56:20;100773.34;;;21.94;35.39
82807;BME280;72563;44.816;20.484;2023-10-08T01:58:46;100771.84;;;21.71;34.73
82807;BME280;72563;44.816;20.484;2023-10-08T02:01:12;100771.81;;;21.67;34.69
82807;BME280;72563;44.816;20.484;2023-10-08T02:03:41;100770.22;;;21.66;34.14
82807;BME280;72563;44.816;20.484;2023-10-08T02:06:07;100767.13;;;21.45;33.69
82807;BME280;72563;44.816;20.484;2023-10-08T02:08:34;100771.03;;;21.37;35.99
82807;BME280;72563;44.816;20.484;2023-10-08T02:10:59;100758.78;;;21.48;34.73
82807;BME280;72563;44.816;20.484;2023-10-08T02:13:25;100764.94;;;21.61;35.27
82807;BME280;72563;44.816;20.484;2023-10-08T02:15:51;100768.09;;;21.56;35.79
82807;BME280;72563;44.816;20.484;2023-10-08T02:18:18;100771.34;;;21.62;35.20
82807;BME280;72563;44.816;20.484;2023-10-08T02:20:44;100768.13;;;21.60;34.53
82807;BME280;72563;44.816;20.484;2023-10-08T02:23:09;100766.50;;;21.59;34.94
82807;BME280;72563;44.816;20.484;2023-10-08T02:25:39;100756.03;;;21.52;35.49
82807;BME280;72563;44.816;20.484;2023-10-08T02:28:08;100752.56;;;21.62;34.58
82807;BME280;72563;44.816;20.484;2023-10-08T02:30:37;100754.97;;;21.64;36.01
82807;BME280;72563;44.816;20.484;2023-10-08T02:33:07;100756.25;;;21.73;35.45
82807;BME280;72563;44.816;20.484;2023-10-08T02:35:43;100750.28;;;21.75;34.83
82807;BME280;72563;44.816;20.484;2023-10-08T02:38:11;100755.84;;;21.71;35.45
82807;BME280;72563;44.816;20.484;2023-10-08T02:40:38;100751.44;;;21.70;35.44
82807;BME280;72563;44.816;20.484;2023-10-08T02:43:10;100749.56;;;21.81;35.14
82807;BME280;72563;44.816;20.484;2023-10-08T02:45:37;100736.53;;;21.63;34.38
82807;BME280;72563;44.816;20.484;2023-10-08T02:48:07;100735.25;;;21.57;34.72
82807;BME280;72563;44.816;20.484;2023-10-08T02:50:40;100736.09;;;21.61;35.38
82807;BME280;72563;44.816;20.484;2023-10-08T02:53:09;100726.22;;;21.70;34.76
82807;BME280;72563;44.816;20.484;2023-10-08T02:58:18;100713.94;;;21.48;33.99
82807;BME280;72563;44.816;20.484;2023-10-08T03:00:48;100714.31;;;21.43;35.34
82807;BME280;72563;44.816;20.484;2023-10-08T03:03:14;100711.88;;;21.42;35.16
82807;BME280;72563;44.816;20.484;2023-10-08T03:05:51;100717.44;;;21.38;33.34
82807;BME280;72563;44.816;20.484;2023-10-08T03:08:18;100725.66;;;21.54;34.99
82807;BME280;72563;44.816;20.484;2023-10-08T03:10:51;100725.38;;;21.66;34.92
82807;BME280;72563;44.816;20.484;2023-10-08T03:13:21;100730.06;;;21.59;33.76
82807;BME280;72563;44.816;20.484;2023-10-08T03:15:47;100734.97;;;21.65;35.12
82807;BME280;72563;44.816;20.484;2023-10-08T03:18:32;100729.91;;;21.78;32.81
82807;BME280;72563;44.816;20.484;2023-10-08T03:21:05;100729.22;;;21.88;34.27
82807;BME280;72563;44.816;20.484;2023-10-08T03:23:48;100728.47;;;21.91;34.02
82807;BME280;72563;44.816;20.484;2023-10-08T03:26:16;100723.91;;;21.79;34.70
82807;BME280;72563;44.816;20.484;2023-10-08T03:28:57;100718.88;;;21.59;33.97
82807;BME280;72563;44.816;20.484;2023-10-08T03:31:23;100724.00;;;21.53;34.25
82807;BME280;72563;44.816;20.484;2023-10-08T03:34:10;100721.75;;;21.66;34.85
82807;BME280;72563;44.816;20.484;2023-10-08T03:36:40;100712.56;;;21.69;34.85
82807;BME280;72563;44.816;20.484;2023-10-08T03:39:16;100707.38;;;21.71;34.21
82807;BME280;72563;44.816;20.484;2023-10-08T03:41:46;100698.78;;;21.86;34.42
82807;BME280;72563;44.816;20.484;2023-10-08T03:44:31;100700.38;;;21.87;33.99
82807;BME280;72563;44.816;20.484;2023-10-08T03:46:56;100695.03;;;21.75;34.21
82807;BME280;72563;44.816;20.484;2023-10-08T03:49:22;100702.19;;;21.69;33.47
82807;BME280;72563;44.816;20.484;2023-10-08T03:51:48;100709.69;;;21.58;33.93
82807;BME280;72563;44.816;20.484;2023-10-08T03:54:17;100713.66;;;21.57;35.13
82807;BME280;72563;44.816;20.484;2023-10-08T03:56:45;100709.25;;;21.56;35.22
82807;BME280;72563;44.816;20.484;2023-10-08T03:59:14;100703.56;;;21.49;35.12
82807;BME280;72563;44.816;20.484;2023-10-08T04:02:01;100699.09;;;21.44;35.15
82807;BME280;72563;44.816;20.484;2023-10-08T04:04:47;100689.28;;;21.28;33.89
82807;BME280;72563;44.816;20.484;2023-10-08T04:07:20;100685.19;;;21.18;34.38
82807;BME280;72563;44.816;20.484;2023-10-08T04:09:59;100679.59;;;21.18;34.39
82807;BME280;72563;44.816;20.484;2023-10-08T04:12:50;100683.75;;;21.31;35.22
82807;BME280;72563;44.816;20.484;2023-10-08T04:15:18;100678.69;;;21.44;34.64
82807;BME280;72563;44.816;20.484;2023-10-08T04:17:44;100683.94;;;21.49;34.97
82807;BME280;72563;44.816;20.484;2023-10-08T04:20:11;100668.78;;;21.50;34.95
82807;BME280;72563;44.816;20.484;2023-10-08T04:22:55;100671.03;;;21.37;33.68
82807;BME280;72563;44.816;20.484;2023-10-08T04:25:20;100672.03;;;21.56;34.05
82807;BME280;72563;44.816;20.484;2023-10-08T04:27:46;100671.47;;;21.43;33.64
82807;BME280;72563;44.816;20.484;2023-10-08T04:30:15;100666.28;;;21.41;33.21
82807;BME280;72563;44.816;20.484;2023-10-08T04:32:41;100679.03;;;21.39;35.15
82807;BME280;72563;44.816;20.484;2023-10-08T04:35:07;100688.94;;;21.29;34.50
82807;BME280;72563;44.816;20.484;2023-10-08T04:37:40;100690.25;;;21.39;34.64
82807;BME280;72563;44.816;20.484;2023-10-08T04:40:06;100687.72;;;21.30;33.43
82807;BME280;72563;44.816;20.484;2023-10-08T04:42:41;100683.50;;;21.43;33.31
82807;BME280;72563;44.816;20.484;2023-10-08T04:45:10;100680.31;;;21.45;34.58
82807;BME280;72563;44.816;20.484;2023-10-08T04:47:40;100678.59;;;21.33;34.99
82807;BME280;72563;44.816;20.484;2023-10-08T04:50:08;100675.72;;;21.30;34.48
82807;BME280;72563;44.816;20.484;2023-10-08T04:52:40;100667.50;;;21.11;34.59
82807;BME280;72563;44.816;20.484;2023-10-08T04:55:11;100665.03;;;21.06;35.21
82807;BME280;72563;44.816;20.484;2023-10-08T04:57:40;100672.47;;;20.95;35.04
82807;BME280;72563;44.816;20.484;2023-10-08T05:00:08;100684.75;;;21.16;35.41
82807;BME280;72563;44.816;20.484;2023-10-08T05:02:39;100697.41;;;21.36;35.31
82807;BME280;72563;44.816;20.484;2023-10-08T05:05:19;100691.91;;;21.43;35.04
82807;BME280;72563;44.816;20.484;2023-10-08T05:07:44;100699.59;;;21.50;34.73
82807;BME280;72563;44.816;20.484;2023-10-08T05:10:10;100692.19;;;21.35;34.22
82807;BME280;72563;44.816;20.484;2023-10-08T05:12:56;100688.09;;;21.25;33.74
82807;BME280;72563;44.816;20.484;2023-10-08T05:15:28;100684.13;;;21.30;34.74
82807;BME280;72563;44.816;20.484;2023-10-08T05:18:07;100679.16;;;21.16;34.23
82807;BME280;72563;44.816;20.484;2023-10-08T05:20:49;100684.63;;;21.06;35.54
82807;BME280;72563;44.816;20.484;2023-10-08T05:23:16;100678.25;;;21.05;34.20
82807;BME280;72563;44.816;20.484;2023-10-08T05:25:56;100674.38;;;21.17;34.16
82807;BME280;72563;44.816;20.484;2023-10-08T05:28:25;100669.03;;;21.05;35.42
82807;BME280;72563;44.816;20.484;2023-10-08T05:30:51;100668.50;;;20.99;35.17
82807;BME280;72563;44.816;20.484;2023-10-08T05:33:35;100669.66;;;20.95;34.38
82807;BME280;72563;44.816;20.484;2023-10-08T05:36:19;100664.84;;;20.95;35.46
82807;BME280;72563;44.816;20.484;2023-10-08T05:38:53;100668.72;;;20.84;35.99
82807;BME280;72563;44.816;20.484;2023-10-08T05:41:44;100672.91;;;20.97;35.88
82807;BME280;72563;44.816;20.484;2023-10-08T05:44:43;100674.47;;;20.94;35.18
82807;BME280;72563;44.816;20.484;2023-10-08T05:47:32;100677.28;;;20.98;35.32
82807;BME280;72563;44.816;20.484;2023-10-08T05:49:58;100685.22;;;20.92;35.88
82807;BME280;72563;44.816;20.484;2023-10-08T05:52:42;100690.91;;;20.70;36.77
82807;BME280;72563;44.816;20.484;2023-10-08T05:55:25;100690.25;;;20.80;36.19
82807;BME280;72563;44.816;20.484;2023-10-08T06:00:50;100691.44;;;20.79;36.81
82807;BME280;72563;44.816;20.484;2023-10-08T06:03:19;100693.69;;;20.70;37.24
82807;BME280;72563;44.816;20.484;2023-10-08T06:06:08;100694.47;;;20.96;36.91
82807;BME280;72563;44.816;20.484;2023-10-08T06:08:37;100709.78;;;21.02;36.52
82807;BME280;72563;44.816;20.484;2023-10-08T06:11:21;100703.88;;;21.07;36.47
82807;BME280;72563;44.816;20.484;2023-10-08T06:14:06;100705.06;;;21.10;36.79
82807;BME280;72563;44.816;20.484;2023-10-08T06:17:00;100712.50;;;21.28;35.71
82807;BME280;72563;44.816;20.484;2023-10-08T06:19:44;100704.50;;;21.27;36.17
82807;BME280;72563;44.816;20.484;2023-10-08T06:22:10;100706.53;;;21.30;36.31
82807;BME280;72563;44.816;20.484;2023-10-08T06:24:35;100705.34;;;21.31;35.92
82807;BME280;72563;44.816;20.484;2023-10-08T06:27:04;100699.22;;;21.22;35.47
82807;BME280;72563;44.816;20.484;2023-10-08T06:29:32;100697.59;;;21.17;36.19
82807;BME280;72563;44.816;20.484;2023-10-08T06:31:58;100700.03;;;20.93;36.09
82807;BME280;72563;44.816;20.484;2023-10-08T06:34:28;100714.03;;;20.93;37.33
82807;BME280;72563;44.816;20.484;2023-10-08T06:36:56;100698.78;;;20.90;36.38
82807;BME280;72563;44.816;20.484;2023-10-08T06:39:24;100693.84;;;21.06;36.92
82807;BME280;72563;44.816;20.484;2023-10-08T06:41:59;100704.19;;;21.02;37.34
82807;BME280;72563;44.816;20.484;2023-10-08T06:44:25;100696.84;;;20.94;36.33
82807;BME280;72563;44.816;20.484;2023-10-08T06:46:53;100693.88;;;21.10;36.51
82807;BME280;72563;44.816;20.484;2023-10-08T06:49:21;100689.47;;;21.09;36.86
82807;BME280;72563;44.816;20.484;2023-10-08T06:51:50;100677.16;;;21.13;36.56
82807;BME280;72563;44.816;20.484;2023-10-08T06:54:16;100678.06;;;21.24;37.02
82807;BME280;72563;44.816;20.484;2023-10-08T06:56:46;100693.13;;;21.13;35.77
82807;BME280;72563;44.816;20.484;2023-10-08T06:59:18;100656.88;;;20.97;37.07
82807;BME280;72563;44.816;20.484;2023-10-08T07:01:44;100665.94;;;21.13;37.06
82807;BME280;72563;44.816;20.484;2023-10-08T07:04:13;100656.28;;;20.81;35.85
82807;BME280;72563;44.816;20.484;2023-10-08T07:06:42;100653.78;;;20.73;37.26
82807;BME280;72563;44.816;20.484;2023-10-08T07:09:12;100657.94;;;20.86;37.74
82807;BME280;72563;44.816;20.484;2023-10-08T07:11:54;100664.34;;;20.86;37.28
82807;BME280;72563;44.816;20.484;2023-10-08T07:14:21;100664.31;;;20.83;36.85
82807;BME280;72563;44.816;20.484;2023-10-08T07:16:48;100672.63;;;20.79;37.35
82807;BME280;72563;44.816;20.484;2023-10-08T07:19:17;100675.09;;;20.81;36.82
82807;BME280;72563;44.816;20.484;2023-10-08T07:21:45;100679.34;;;21.01;37.49
82807;BME280;72563;44.816;20.484;2023-10-08T07:24:14;100692.31;;;21.12;36.75
82807;BME280;72563;44.816;20.484;2023-10-08T07:26:47;100695.31;;;21.30;36.53
82807;BME280;72563;44.816;20.484;2023-10-08T07:29:14;100683.69;;;21.28;35.98
82807;BME280;72563;44.816;20.484;2023-10-08T07:31:45;100694.47;;;21.26;36.32
82807;BME280;72563;44.816;20.484;2023-10-08T07:34:16;100678.03;;;21.21;36.92
82807;BME280;72563;44.816;20.484;2023-10-08T07:36:51;100688.19;;;21.36;36.08
82807;BME280;72563;44.816;20.484;2023-10-08T07:39:18;100676.53;;;21.30;36.25
82807;BME280;72563;44.816;20.484;2023-10-08T07:41:56;100681.91;;;21.46;37.18
82807;BME280;72563;44.816;20.484;2023-10-08T07:44:22;100679.84;;;21.39;37.88
82807;BME280;72563;44.816;20.484;2023-10-08T07:46:52;100679.19;;;21.53;37.76
82807;BME280;72563;44.816;20.484;2023-10-08T07:49:20;100671.91;;;21.45;37.69
82807;BME280;72563;44.816;20.484;2023-10-08T07:51:48;100670.94;;;21.67;37.05
82807;BME280;72563;44.816;20.484;2023-10-08T07:54:22;100673.19;;;21.55;37.47
82807;BME280;72563;44.816;20.484;2023-10-08T07:56:50;100663.94;;;21.51;37.26
82807;BME280;72563;44.816;20.484;2023-10-08T07:59:22;100665.59;;;21.55;36.74
82807;BME280;72563;44.816;20.484;2023-10-08T08:01:48;100666.59;;;21.36;38.23
82807;BME280;72563;44.816;20.484;2023-10-08T08:04:13;100661.56;;;21.53;36.40
82807;BME280;72563;44.816;20.484;2023-10-08T08:06:51;100661.34;;;21.68;37.19
82807;BME280;72563;44.816;20.484;2023-10-08T08:09:18;100659.28;;;21.62;36.72
82807;BME280;72563;44.816;20.484;2023-10-08T08:11:49;100664.22;;;21.75;37.75
82807;BME280;72563;44.816;20.484;2023-10-08T08:14:16;100664.84;;;21.95;37.82
82807;BME280;72563;44.816;20.484;2023-10-08T08:16:45;100669.28;;;21.63;36.63
82807;BME280;72563;44.816;20.484;2023-10-08T08:19:14;100662.06;;;21.58;37.89
82807;BME280;72563;44.816;20.484;2023-10-08T08:21:42;100654.53;;;21.69;37.02
82807;BME280;72563;44.816;20.484;2023-10-08T08:24:11;100646.81;;;21.96;37.33
82807;BME280;72563;44.816;20.484;2023-10-08T08:26:37;100656.47;;;21.98;38.28
82807;BME280;72563;44.816;20.484;2023-10-08T08:29:16;100644.97;;;22.17;39.65
82807;BME280;72563;44.816;20.484;2023-10-08T08:31:41;100646.63;;;22.25;38.67
82807;BME280;72563;44.816;20.484;2023-10-08T08:34:11;100638.38;;;22.43;37.60
82807;BME280;72563;44.816;20.484;2023-10-08T08:36:44;100638.84;;;22.01;37.00
82807;BME280;72563;44.816;20.484;2023-10-08T08:39:17;100637.28;;;22.07;39.41
82807;BME280;72563;44.816;20.484;2023-10-08T08:42:01;100652.66;;;22.27;36.95
82807;BME280;72563;44.816;20.484;2023-10-08T08:44:31;100642.22;;;22.21;39.02
82807;BME280;72563;44.816;20.484;2023-10-08T08:47:00;100641.81;;;22.22;36.91
82807;BME280;72563;44.816;20.484;2023-10-08T08:49:35;100635.72;;;22.10;37.77
82807;BME280;72563;44.816;20.484;2023-10-08T08:52:04;100631.78;;;22.21;37.84
82807;BME280;72563;44.816;20.484;2023-10-08T08:54:30;100640.34;;;22.39;37.33
82807;BME280;72563;44.816;20.484;2023-10-08T08:57:01;100638.31;;;22.36;38.02
82807;BME280;72563;44.816;20.484;2023-10-08T08:59:29;100635.22;;;22.52;38.10
82807;BME280;72563;44.816;20.484;2023-10-08T09:01:57;100635.75;;;22.71;37.20
82807;BME280;72563;44.816;20.484;2023-10-08T09:04:34;100636.59;;;22.79;36.71
82807;BME280;72563;44.816;20.484;2023-10-08T09:07:02;100638.91;;;22.66;37.20
82807;BME280;72563;44.816;20.484;2023-10-08T09:09:32;100640.31;;;23.00;36.29
82807;BME280;72563;44.816;20.484;2023-10-08T09:11:59;100650.09;;;23.35;35.54
82807;BME280;72563;44.816;20.484;2023-10-08T09:14:26;100642.81;;;23.30;35.22
82807;BME280;72563;44.816;20.484;2023-10-08T09:16:53;100640.88;;;23.52;34.94
82807;BME280;72563;44.816;20.484;2023-10-08T09:19:19;100646.97;;;23.68;35.31
82807;BME280;72563;44.816;20.484;2023-10-08T09:22:01;100644.94;;;23.82;35.05
82807;BME280;72563;44.816;20.484;2023-10-08T09:24:32;100651.00;;;23.92;34.89
82807;BME280;72563;44.816;20.484;2023-10-08T09:27:00;100646.16;;;23.99;35.33
82807;BME280;72563;44.816;20.484;2023-10-08T09:29:25;100649.41;;;24.12;34.68
82807;BME280;72563;44.816;20.484;2023-10-08T09:31:59;100642.94;;;24.39;34.75
82807;BME280;72563;44.816;20.484;2023-10-08T09:34:31;100647.75;;;24.63;34.34
82807;BME280;72563;44.816;20.484;2023-10-08T09:36:59;100642.09;;;24.70;34.50
82807;BME280;72563;44.816;20.484;2023-10-08T09:39:26;100642.47;;;24.83;33.61
82807;BME280;72563;44.816;20.484;2023-10-08T09:41:57;100649.31;;;24.86;34.05
82807;BME280;72563;44.816;20.484;2023-10-08T09:44:24;100654.94;;;24.82;33.69
82807;BME280;72563;44.816;20.484;2023-10-08T09:46:57;100651.72;;;24.80;34.02
82807;BME280;72563;44.816;20.484;2023-10-08T09:49:40;100652.16;;;24.54;34.34
82807;BME280;72563;44.816;20.484;2023-10-08T09:52:09;100644.97;;;24.39;34.82
82807;BME280;72563;44.816;20.484;2023-10-08T09:54:49;100650.59;;;24.35;35.18
82807;BME280;72563;44.816;20.484;2023-10-08T09:57:19;100645.34;;;24.37;35.27
82807;BME280;72563;44.816;20.484;2023-10-08T09:59:46;100642.91;;;24.67;34.53
82807;BME280;72563;44.816;20.484;2023-10-08T10:02:15;100633.97;;;25.04;34.10
82807;BME280;72563;44.816;20.484;2023-10-08T10:04:43;100633.38;;;25.37;33.54
82807;BME280;72563;44.816;20.484;2023-10-08T10:07:12;100640.97;;;25.55;33.24
82807;BME280;72563;44.816;20.484;2023-10-08T10:09:43;100642.63;;;25.45;33.58
82807;BME280;72563;44.816;20.484;2023-10-08T10:12:11;100632.47;;;25.58;33.06
82807;BME280;72563;44.816;20.484;2023-10-08T10:14:47;100636.53;;;25.57;33.30
82807;BME280;72563;44.816;20.484;2023-10-08T10:17:25;100644.84;;;25.75;33.51
82807;BME280;72563;44.816;20.484;2023-10-08T10:19:59;100634.44;;;26.19;32.95
82807;BME280;72563;44.816;20.484;2023-10-08T10:22:31;100634.59;;;26.46;32.81
82807;BME280;72563;44.816;20.484;2023-10-08T10:24:58;100632.22;;;26.41;31.60
82807;BME280;72563;44.816;20.484;2023-10-08T10:27:25;100639.13;;;26.33;31.61
82807;BME280;72563;44.816;20.484;2023-10-08T10:30:01;100626.94;;;26.47;31.20
82807;BME280;72563;44.816;20.484;2023-10-08T10:32:29;100628.72;;;26.67;30.71
82807;BME280;72563;44.816;20.484;2023-10-08T10:34:55;100620.19;;;26.74;30.40
82807;BME280;72563;44.816;20.484;2023-10-08T10:37:20;100616.72;;;26.56;30.37
82807;BME280;72563;44.816;20.484;2023-10-08T10:39:55;100613.97;;;26.86;30.03
82807;BME280;72563;44.816;20.484;2023-10-08T10:42:23;100605.94;;;27.15;29.96
82807;BME280;72563;44.816;20.484;2023-10-08T10:44:52;100601.53;;;27.14;29.42
82807;BME280;72563;44.816;20.484;2023-10-08T10:47:19;100604.56;;;27.27;29.68
82807;BME280;72563;44.816;20.484;2023-10-08T10:49:49;100603.88;;;27.19;29.20
82807;BME280;72563;44.816;20.484;2023-10-08T10:52:26;100603.34;;;27.28;29.15
82807;BME280;72563;44.816;20.484;2023-10-08T10:55:05;100605.00;;;27.25;29.40
82807;BME280;72563;44.816;20.484;2023-10-08T10:57:41;100580.63;;;27.08;29.50
82807;BME280;72563;44.816;20.484;2023-10-08T11:00:08;100573.03;;;27.01;30.08
82807;BME280;72563;44.816;20.484;2023-10-08T11:02:53;100569.59;;;26.87;30.01
82807;BME280;72563;44.816;20.484;2023-10-08T11:05:24;100568.09;;;26.79;30.30
82807;BME280;72563;44.816;20.484;2023-10-08T11:07:57;100565.72;;;26.70;30.45
82807;BME280;72563;44.816;20.484;2023-10-08T11:10:31;100564.75;;;26.50;30.56
82807;BME280;72563;44.816;20.484;2023-10-08T11:12:58;100561.81;;;26.23;31.39
82807;BME280;72563;44.816;20.484;2023-10-08T11:15:27;100561.44;;;26.21;31.42
82807;BME280;72563;44.816;20.484;2023-10-08T11:18:10;100562.97;;;26.29;30.91
82807;BME280;72563;44.816;20.484;2023-10-08T11:20:36;100566.22;;;26.28;31.32
82807;BME280;72563;44.816;20.484;2023-10-08T11:23:35;100564.19;;;25.84;32.38
82807;BME280;72563;44.816;20.484;2023-10-08T11:26:03;100568.91;;;25.94;32.52
82807;BME280;72563;44.816;20.484;2023-10-08T11:28:34;100567.69;;;25.99;32.59
82807;BME280;72563;44.816;20.484;2023-10-08T11:31:04;100569.03;;;25.84;32.63
82807;BME280;72563;44.816;20.484;2023-10-08T11:33:43;100571.94;;;25.73;33.45
82807;BME280;72563;44.816;20.484;2023-10-08T11:36:19;100571.25;;;25.59;34.32
82807;BME280;72563;44.816;20.484;2023-10-08T11:38:46;100572.84;;;25.63;34.93
82807;BME280;72563;44.816;20.484;2023-10-08T11:41:17;100559.59;;;25.57;35.57
82807;BME280;72563;44.816;20.484;2023-10-08T11:43:54;100560.63;;;25.77;35.42
82807;BME280;72563;44.816;20.484;2023-10-08T11:48:58;100575.25;;;26.50;34.57
82807;BME280;72563;44.816;20.484;2023-10-08T11:51:32;100571.41;;;26.33;34.15
82807;BME280;72563;44.816;20.484;2023-10-08T11:53:59;100574.53;;;26.42;34.49
82807;BME280;72563;44.816;20.484;2023-10-08T11:56:26;100555.56;;;26.43;34.26
82807;BME280;72563;44.816;20.484;2023-10-08T11:58:52;100556.34;;;26.47;34.00
82807;BME280;72563;44.816;20.484;2023-10-08T12:01:22;100556.91;;;26.31;34.74
82807;BME280;72563;44.816;20.484;2023-10-08T12:03:49;100558.56;;;26.25;34.75
82807;BME280;72563;44.816;20.484;2023-10-08T12:06:17;100565.75;;;26.33;34.06
82807;BME280;72563;44.816;20.484;2023-10-08T12:08:47;100568.22;;;26.27;34.45
82807;BME280;72563;44.816;20.484;2023-10-08T12:11:13;100563.94;;;26.12;34.96
82807;BME280;72563;44.816;20.484;2023-10-08T12:13:40;100559.94;;;26.06;35.24
82807;BME280;72563;44.816;20.484;2023-10-08T12:16:13;100553.03;;;26.18;34.63
82807;BME280;72563;44.816;20.484;2023-10-08T12:18:45;100556.13;;;26.27;34.57
82807;BME280;72563;44.816;20.484;2023-10-08T12:21:13;100547.88;;;26.09;34.71
82807;BME280;72563;44.816;20.484;2023-10-08T12:23:41;100558.19;;;26.23;34.90
82807;BME280;72563;44.816;20.484;2023-10-08T12:26:12;100544.56;;;26.14;34.53
82807;BME280;72563;44.816;20.484;2023-10-08T12:28:41;100534.13;;;26.11;34.53
82807;BME280;72563;44.816;20.484;2023-10-08T12:31:13;100534.03;;;26.22;33.81
82807;BME280;72563;44.816;20.484;2023-10-08T12:33:41;100556.22;;;26.20;34.51
82807;BME280;72563;44.816;20.484;2023-10-08T12:36:09;100542.94;;;26.17;33.80
82807;BME280;72563;44.816;20.484;2023-10-08T12:38:40;100532.13;;;26.12;34.34
82807;BME280;72563;44.816;20.484;2023-10-08T12:41:07;100559.06;;;26.16;34.04
82807;BME280;72563;44.816;20.484;2023-10-08T12:43:42;100561.88;;;26.20;34.42
82807;BME280;72563;44.816;20.484;2023-10-08T12:46:11;100525.19;;;26.16;34.07
82807;BME280;72563;44.816;20.484;2023-10-08T12:48:43;100536.09;;;26.14;33.63
82807;BME280;72563;44.816;20.484;2023-10-08T12:51:09;100548.41;;;25.94;34.20
82807;BME280;72563;44.816;20.484;2023-10-08T12:53:36;100577.75;;;26.00;34.12
82807;BME280;72563;44.816;20.484;2023-10-08T12:56:06;100578.19;;;25.95;34.14
82807;BME280;72563;44.816;20.484;2023-10-08T12:58:34;100575.47;;;25.84;34.27
82807;BME280;72563;44.816;20.484;2023-10-08T13:01:12;100563.41;;;25.84;34.26
82807;BME280;72563;44.816;20.484;2023-10-08T13:03:39;100595.31;;;25.70;34.47
82807;BME280;72563;44.816;20.484;2023-10-08T13:06:10;100597.78;;;25.65;34.65
82807;BME280;72563;44.816;20.484;2023-10-08T13:08:48;100615.91;;;25.64;34.93